CheckWX is a tool to help pilots better visualize weather data.  It is not intended as a substitute for an official pre-flight weather briefing.

20:33:47 UTC

LFRC TAF
Cherbourg-Maupertus Airport
Cherbourg/Maupertus, France
TAF AMD LFRC 221517Z 2215/2224 VRB05KT 8000 FEW025 PROB30 TEMPO 2216/2218 BKN004 BECMG 2218/2220 3000 BR BKN004

Mar-22@
15:00 UTC

Mar-22 @ 15:00 UTC

Mar-22@
18:00 UTC

Mar-22 @ 18:00 UTC

TAF AMD LFRC 221517Z 2215/2224 VRB05KT 8000 FEW025

Expired

Wind
  • Variable at 5 KTS
Cloud Levels
  • Few at 2,500' AGL

Mar-22@
16:00 UTC

Mar-22 @ 16:00 UTC

Mar-22@
18:00 UTC

Mar-22 @ 18:00 UTC

PROB30 TEMPO 2216/2218 BKN004

Expired

Cloud Levels
  • Broken at 400' AGL

Mar-22@
18:00 UTC

Mar-22 @ 18:00 UTC

Mar-23@
00:00 UTC

Mar-23 @ 00:00 UTC

BECMG 2218/2220 3000 BR BKN004

Becoming

Becoming Conditions expected by Fri, Mar 22, 2019 @ 20:00 UTC

Wind
  • Variable at 5 KTS
Conditions
Mist
Cloud Levels
  • Broken at 400' AGL